Terminal Aerodrome Forecast
Issued by NWS Grand Forks, ND

Home | Current Version | Previous Version | Text Only | Print | Product List | Glossary On
Versions: 1 2 3 4 5 6 7 8 9 10 11 12 13 14 15
000
FTUS43 KFGF 201421 AAA
TAFFAR
TAF AMD
KFAR 201421Z 2014/2112 16014G23KT P6SM -RA OVC080
     FM201600 19011KT P6SM VCSH OVC040
     FM201800 25012KT P6SM VCSH OVC035
     FM202000 27014KT P6SM BKN035
     FM210900 20006KT P6SM SCT100=

USA.gov is the U.S. government's official web portal to all federal, state and local government web resources and services.